Weippe, Idaho
Current Conditions -  °F | °C
As of 4:35 AM on Monday 26 Jan 2015 (Local Time) from KGIC Reporting Station
Clear Clear  
Wind Chill: 34°   Ceiling: Unl
Heat Index: 34°   Visibility: 7mi
Dew Point: 31°   Wind: 0mph
Humidity: 90%   Direction: NA
Pressure: 30.2"   Gusts: NA
Location:  46.38°N, 115.94°W
Report Text: KGIC 261235Z AUTO 00000KT 7SM CLR 01/00 A3020 RMK AO1 T00101005
Loading
Personal Weather Stations






























Interactive Weather Map New forecast layout! Learn more

10-Day Weather Forecast

Advertisements
Track Severe Weather on mobile